createdAt,value
2022-08-06T00:00:26.898Z,64.76
2022-08-06T00:02:54.237Z,65.37
2022-08-06T00:05:30.103Z,65.35
2022-08-06T00:08:02.249Z,65.56
2022-08-06T00:10:30.582Z,65.78
2022-08-06T00:13:02.055Z,65.94
2022-08-06T00:16:09.995Z,65.76
2022-08-06T00:18:18.185Z,65.74
2022-08-06T00:20:44.889Z,66.02
2022-08-06T00:23:17.427Z,65.77
2022-08-06T00:25:52.034Z,66.04
2022-08-06T00:28:20.632Z,66.41
2022-08-06T00:30:47.354Z,66.70
2022-08-06T00:33:15.262Z,66.51
2022-08-06T00:35:45.288Z,66.84
2022-08-06T00:38:12.577Z,66.73
2022-08-06T00:40:50.122Z,66.67
2022-08-06T00:43:17.330Z,66.63
2022-08-06T00:45:46.693Z,66.74
2022-08-06T00:48:21.743Z,67.41
2022-08-06T00:51:02.326Z,67.16
2022-08-06T00:53:34.069Z,67.19
2022-08-06T00:56:08.201Z,67.29
2022-08-06T00:58:40.526Z,67.35
2022-08-06T01:01:17.255Z,67.54
2022-08-06T01:03:51.490Z,67.56
2022-08-06T01:06:55.272Z,67.51
2022-08-06T01:09:07.464Z,67.93
2022-08-06T01:11:34.666Z,68.15
2022-08-06T01:14:03.166Z,68.17
2022-08-06T01:16:49.598Z,68.30
2022-08-06T01:19:20.733Z,68.65
2022-08-06T01:22:31.121Z,68.81
2022-08-06T01:24:57.103Z,68.83
2022-08-06T01:27:42.333Z,69.88
2022-08-06T01:30:14.020Z,69.67
2022-08-06T01:33:10.826Z,70.15
2022-08-06T01:35:47.823Z,69.51
2022-08-06T01:38:27.096Z,69.45
2022-08-06T01:40:55.177Z,69.38
2022-08-06T01:44:07.286Z,69.75
2022-08-06T01:46:10.968Z,69.73
2022-08-06T01:48:39.117Z,69.38
2022-08-06T01:51:08.666Z,69.18
2022-08-06T01:54:06.725Z,68.92
2022-08-06T01:56:56.231Z,69.60
2022-08-06T01:59:27.452Z,70.27
2022-08-06T02:01:57.127Z,70.80
2022-08-06T02:04:27.680Z,71.23
2022-08-06T02:06:54.568Z,71.63
2022-08-06T02:09:33.966Z,72.25
2022-08-06T02:12:08.918Z,72.38
2022-08-06T02:14:53.758Z,72.23
2022-08-06T02:17:26.623Z,72.48
2022-08-06T02:20:11.974Z,73.70
2022-08-06T02:22:46.969Z,73.09
2022-08-06T02:25:21.987Z,73.27
2022-08-06T02:27:53.406Z,73.41
2022-08-06T02:30:28.853Z,73.91
2022-08-06T02:33:02.556Z,73.54
2022-08-06T02:35:31.114Z,74.26
2022-08-06T02:38:09.964Z,74.38
2022-08-06T02:40:47.796Z,75.04
2022-08-06T02:43:20.271Z,75.23
2022-08-06T02:45:59.202Z,74.97
2022-08-06T02:48:35.147Z,74.64
2022-08-06T02:51:44.293Z,74.65
2022-08-06T02:54:04.553Z,74.80
2022-08-06T02:56:42.602Z,74.88
2022-08-06T02:59:13.337Z,74.77
2022-08-06T03:01:44.638Z,74.51
2022-08-06T03:04:12.661Z,74.77
2022-08-06T03:06:42.735Z,75.05
2022-08-06T03:09:10.416Z,75.45
2022-08-06T03:11:42.305Z,74.97
2022-08-06T03:14:31.878Z,75.23
2022-08-06T03:16:57.854Z,75.10
2022-08-06T03:19:55.867Z,75.19
2022-08-06T03:22:34.528Z,75.45
2022-08-06T03:25:00.897Z,75.22
2022-08-06T03:27:31.572Z,75.34
2022-08-06T03:30:32.483Z,75.68
2022-08-06T03:33:07.507Z,76.05
2022-08-06T03:35:51.642Z,75.83
2022-08-06T03:38:21.285Z,75.90
2022-08-06T03:40:48.602Z,76.22
2022-08-06T03:43:27.274Z,75.47
2022-08-06T03:46:02.452Z,75.35
2022-08-06T03:48:36.339Z,75.19
2022-08-06T03:51:10.149Z,75.14
2022-08-06T03:53:38.386Z,75.38
2022-08-06T03:56:05.598Z,74.47
2022-08-06T03:58:33.359Z,74.07
2022-08-06T04:01:03.822Z,74.01
2022-08-06T04:03:39.328Z,74.49
2022-08-06T04:06:16.754Z,74.54
2022-08-06T04:08:48.105Z,74.60
2022-08-06T04:12:08.060Z,74.60
2022-08-06T04:14:06.101Z,74.86
2022-08-06T04:16:36.122Z,74.67
2022-08-06T04:19:09.187Z,74.64
2022-08-06T04:22:59.103Z,75.03
2022-08-06T04:24:30.555Z,74.86
2022-08-06T04:27:00.426Z,75.27
2022-08-06T04:29:51.115Z,74.84
2022-08-06T04:32:28.958Z,75.14
2022-08-06T04:36:03.138Z,75.17
2022-08-06T04:37:44.024Z,75.09
2022-08-06T04:40:15.385Z,75.09
2022-08-06T04:42:46.629Z,74.95
2022-08-06T04:46:16.965Z,74.76
2022-08-06T04:48:05.161Z,74.95
2022-08-06T04:50:35.536Z,74.56
2022-08-06T04:53:42.781Z,74.70
2022-08-06T04:56:04.356Z,74.34
2022-08-06T04:58:33.260Z,74.73
2022-08-06T05:01:06.894Z,74.67
2022-08-06T05:04:06.571Z,74.19
2022-08-06T05:06:47.148Z,74.41
2022-08-06T05:09:38.134Z,74.23
2022-08-06T05:12:23.479Z,73.21
2022-08-06T05:14:56.042Z,73.39
2022-08-06T05:17:25.501Z,72.81
2022-08-06T05:19:59.521Z,72.51
2022-08-06T05:22:42.525Z,72.07
2022-08-06T05:25:21.961Z,72.07
2022-08-06T05:28:04.359Z,72.45
2022-08-06T05:30:43.096Z,71.43
2022-08-06T05:33:11.736Z,71.26
2022-08-06T05:35:45.729Z,71.28
2022-08-06T05:38:31.602Z,71.03
2022-08-06T05:41:00.036Z,69.83
2022-08-06T05:44:00.201Z,69.77
2022-08-06T05:46:25.105Z,69.74
2022-08-06T05:49:02.066Z,69.05
2022-08-06T05:51:50.007Z,68.39
2022-08-06T05:54:32.212Z,68.56
2022-08-06T05:57:16.411Z,67.95
2022-08-06T05:59:57.350Z,67.58
2022-08-06T06:02:26.436Z,67.89
2022-08-06T06:06:06.728Z,67.12
2022-08-06T06:08:10.267Z,67.50
2022-08-06T06:10:28.728Z,67.24
2022-08-06T06:13:00.689Z,66.62
2022-08-06T06:15:59.664Z,65.93
2022-08-06T06:18:37.178Z,65.06
2022-08-06T06:21:38.936Z,65.37
2022-08-06T06:24:20.141Z,65.01
2022-08-06T06:26:52.001Z,64.43
2022-08-06T06:30:02.673Z,64.31
2022-08-06T06:32:45.759Z,64.58
2022-08-06T06:35:33.976Z,63.93
2022-08-06T06:38:04.145Z,64.19
2022-08-06T06:40:53.214Z,63.48
2022-08-06T06:43:47.690Z,63.36
2022-08-06T06:46:44.986Z,63.02
2022-08-06T06:49:53.161Z,62.07
2022-08-06T06:52:34.838Z,62.04
2022-08-06T06:55:27.151Z,61.08
2022-08-06T06:58:04.714Z,61.46
2022-08-06T07:00:45.167Z,61.16
2022-08-06T07:03:14.087Z,61.31
2022-08-06T07:06:05.858Z,61.42
2022-08-06T07:08:41.989Z,60.45
2022-08-06T07:11:09.414Z,60.09
2022-08-06T07:13:46.770Z,59.88
2022-08-06T07:16:34.654Z,58.89
2022-08-06T07:19:04.793Z,57.62
2022-08-06T07:21:31.881Z,57.56
2022-08-06T07:24:08.366Z,56.58
2022-08-06T07:26:47.964Z,56.16
2022-08-06T07:29:23.284Z,55.89
2022-08-06T07:32:05.735Z,55.99
2022-08-06T07:34:34.051Z,56.63
2022-08-06T07:37:00.924Z,55.21
2022-08-06T07:39:34.689Z,54.63
2022-08-06T07:42:11.561Z,54.05
2022-08-06T07:44:54.510Z,53.53
2022-08-06T07:47:46.438Z,52.79
2022-08-06T07:50:14.831Z,52.59
2022-08-06T07:52:42.708Z,52.27
2022-08-06T07:55:11.653Z,51.73
2022-08-06T07:57:55.308Z,51.09
2022-08-06T08:00:27.606Z,51.11
2022-08-06T08:03:43.272Z,50.06
2022-08-06T08:06:21.578Z,49.06
2022-08-06T08:08:50.716Z,48.50
2022-08-06T08:11:17.451Z,49.10
2022-08-06T08:13:47.210Z,48.93
2022-08-06T08:16:20.393Z,48.55
2022-08-06T08:18:55.435Z,47.91
2022-08-06T08:21:22.579Z,47.12
2022-08-06T08:23:55.680Z,46.84
2022-08-06T08:26:25.341Z,46.61
2022-08-06T08:28:51.837Z,46.77
2022-08-06T08:31:25.583Z,46.10
2022-08-06T08:33:53.074Z,45.07
2022-08-06T08:36:22.183Z,44.48
2022-08-06T08:39:00.242Z,44.64
2022-08-06T08:41:48.176Z,45.93
2022-08-06T08:44:26.989Z,44.37
2022-08-06T08:46:58.975Z,45.45
2022-08-06T08:49:39.321Z,44.96
2022-08-06T08:52:14.266Z,45.65
2022-08-06T08:54:50.472Z,46.28
2022-08-06T08:58:39.676Z,46.71
2022-08-06T09:00:10.732Z,46.11
2022-08-06T09:02:39.583Z,44.30
2022-08-06T09:05:15.700Z,44.97
2022-08-06T09:07:42.719Z,44.62
2022-08-06T09:10:12.005Z,44.76
2022-08-06T09:12:45.247Z,44.94
2022-08-06T09:15:12.676Z,45.40
2022-08-06T09:18:26.100Z,44.27
2022-08-06T09:20:28.322Z,42.99
2022-08-06T09:22:54.783Z,42.91
2022-08-06T09:25:49.822Z,42.34
2022-08-06T09:28:42.004Z,41.85
2022-08-06T09:31:30.624Z,41.59
2022-08-06T09:34:29.797Z,39.74
2022-08-06T09:36:56.785Z,40.01
2022-08-06T09:39:46.070Z,36.00
2022-08-06T09:42:37.151Z,35.44
2022-08-06T09:45:16.299Z,35.58
2022-08-06T09:47:47.546Z,35.33
2022-08-06T09:50:43.946Z,33.34
2022-08-06T09:53:18.538Z,34.60
2022-08-06T09:55:47.381Z,35.29
2022-08-06T09:58:14.073Z,34.27
2022-08-06T10:00:40.555Z,35.02
2022-08-06T10:04:01.132Z,34.10
2022-08-06T10:06:10.540Z,33.92
2022-08-06T10:08:37.617Z,33.80
2022-08-06T10:11:06.995Z,34.24
2022-08-06T10:13:43.707Z,33.23
2022-08-06T10:16:29.076Z,31.84
2022-08-06T10:18:59.200Z,31.04
2022-08-06T10:21:40.137Z,30.78
2022-08-06T10:24:09.714Z,31.00
2022-08-06T10:26:36.364Z,31.00
2022-08-06T10:29:08.126Z,30.61
2022-08-06T10:31:36.586Z,31.93
2022-08-06T10:34:06.048Z,31.63
2022-08-06T10:36:37.503Z,32.61
2022-08-06T10:39:04.987Z,32.45
2022-08-06T10:42:01.250Z,32.27
2022-08-06T10:44:32.518Z,31.93
2022-08-06T10:47:00.873Z,33.41
2022-08-06T10:50:25.893Z,35.07
2022-08-06T10:52:20.623Z,35.76
2022-08-06T10:54:52.131Z,36.43
2022-08-06T10:57:35.523Z,38.27
2022-08-06T11:00:06.593Z,38.48
2022-08-06T11:03:00.599Z,39.14
2022-08-06T11:05:48.364Z,38.64
2022-08-06T11:08:32.202Z,37.62
2022-08-06T11:11:42.330Z,38.66
2022-08-06T11:14:14.871Z,38.72
2022-08-06T11:16:56.073Z,38.33
2022-08-06T11:19:46.408Z,37.68
2022-08-06T11:22:35.021Z,37.76
2022-08-06T11:25:11.105Z,37.83
2022-08-06T11:28:04.807Z,38.90
2022-08-06T11:30:46.245Z,39.67
2022-08-06T11:33:36.392Z,39.14
2022-08-06T11:36:25.329Z,38.60
2022-08-06T11:38:59.232Z,37.80
2022-08-06T11:42:03.925Z,38.18
2022-08-06T11:44:37.132Z,39.38
2022-08-06T11:47:22.860Z,38.09
2022-08-06T11:49:57.941Z,38.77
2022-08-06T11:52:39.245Z,38.70
2022-08-06T11:55:08.496Z,38.53
2022-08-06T11:57:41.147Z,38.75
2022-08-06T12:00:15.012Z,38.92
2022-08-06T12:02:47.044Z,38.93
2022-08-06T12:05:17.435Z,39.27
2022-08-06T12:07:51.793Z,39.56
2022-08-06T12:10:29.295Z,40.18
2022-08-06T12:12:56.665Z,40.05
2022-08-06T12:15:52.713Z,39.35
2022-08-06T12:20:49.424Z,38.94
2022-08-06T12:23:23.666Z,37.82
2022-08-06T12:26:10.057Z,38.09
2022-08-06T12:28:36.518Z,38.15
2022-08-06T12:31:34.804Z,37.56
2022-08-06T12:33:49.751Z,37.27
2022-08-06T12:36:32.105Z,37.09
2022-08-06T12:39:03.899Z,36.87
2022-08-06T12:41:45.584Z,36.95
2022-08-06T12:44:14.248Z,37.05
2022-08-06T12:46:41.536Z,36.69
2022-08-06T12:49:10.544Z,36.26
2022-08-06T12:51:37.733Z,37.43
2022-08-06T12:54:06.825Z,36.22
2022-08-06T12:56:37.535Z,35.88
2022-08-06T12:59:15.931Z,35.95
2022-08-06T13:02:09.389Z,35.78
2022-08-06T13:04:35.910Z,36.25
2022-08-06T13:07:09.072Z,36.03
2022-08-06T13:09:56.074Z,36.09
2022-08-06T13:12:29.275Z,35.83
2022-08-06T13:15:10.150Z,34.17
2022-08-06T13:18:40.604Z,31.28
2022-08-06T13:21:26.962Z,32.51
2022-08-06T13:24:11.715Z,33.44
2022-08-06T13:26:53.227Z,34.21
2022-08-06T13:30:34.788Z,35.46
2022-08-06T13:32:28.098Z,33.84
2022-08-06T13:34:58.935Z,29.90
2022-08-06T13:37:56.150Z,31.06
2022-08-06T13:40:46.594Z,28.62
2022-08-06T13:43:37.821Z,27.64
2022-08-06T13:46:15.535Z,26.69
2022-08-06T13:48:48.857Z,27.48
2022-08-06T13:51:27.320Z,26.61
2022-08-06T13:53:57.590Z,27.06
2022-08-06T13:56:28.735Z,26.83
2022-08-06T13:58:59.282Z,26.23
2022-08-06T14:01:34.918Z,26.72
2022-08-06T14:04:18.399Z,26.34
2022-08-06T14:06:46.775Z,27.25
2022-08-06T14:09:20.823Z,27.18
2022-08-06T14:11:56.784Z,28.99
2022-08-06T14:14:27.497Z,29.38
2022-08-06T14:16:56.021Z,30.52
2022-08-06T14:20:09.180Z,31.48
2022-08-06T14:22:09.800Z,30.67
2022-08-06T14:24:39.369Z,31.36
2022-08-06T14:27:15.247Z,29.71
2022-08-06T14:30:29.432Z,27.06
2022-08-06T14:32:33.343Z,28.63
2022-08-06T14:35:03.844Z,28.70
2022-08-06T14:37:43.623Z,29.97
2022-08-06T14:40:37.692Z,29.93
2022-08-06T14:43:42.618Z,32.52
2022-08-06T14:46:20.943Z,34.29
2022-08-06T14:48:56.926Z,33.60
2022-08-06T14:51:24.266Z,32.47
2022-08-06T14:54:05.524Z,31.42
2022-08-06T14:56:38.118Z,30.89
2022-08-06T14:59:12.261Z,30.44
2022-08-06T15:01:39.795Z,30.14
2022-08-06T15:04:22.275Z,30.76
2022-08-06T15:06:53.811Z,32.36
2022-08-06T15:10:04.281Z,30.86
2022-08-06T15:12:07.952Z,32.89
2022-08-06T15:14:38.165Z,33.38
2022-08-06T15:17:49.706Z,35.76
2022-08-06T15:19:51.834Z,36.09
2022-08-06T15:22:30.936Z,39.07
2022-08-06T15:25:08.332Z,35.71
2022-08-06T15:27:36.338Z,35.59
2022-08-06T15:30:03.960Z,35.04
2022-08-06T15:32:32.140Z,35.97
2022-08-06T15:34:58.627Z,36.51
2022-08-06T15:37:54.309Z,37.40
2022-08-06T15:40:12.758Z,37.73
2022-08-06T15:42:40.584Z,37.30
2022-08-06T15:45:08.654Z,38.84
2022-08-06T15:47:55.063Z,39.09
2022-08-06T15:50:34.457Z,40.46
2022-08-06T15:53:01.673Z,42.29
2022-08-06T15:55:48.266Z,40.89
2022-08-06T15:58:28.358Z,40.48
2022-08-06T16:01:04.006Z,41.73
2022-08-06T16:03:56.245Z,40.81
2022-08-06T16:06:26.100Z,40.60
2022-08-06T16:09:00.225Z,40.16
2022-08-06T16:11:50.946Z,40.72
2022-08-06T16:14:20.021Z,40.78
2022-08-06T16:16:59.249Z,40.84
2022-08-06T16:19:25.661Z,40.04
2022-08-06T16:21:54.277Z,38.96
2022-08-06T16:24:20.715Z,35.71
2022-08-06T16:26:57.721Z,34.34
2022-08-06T16:29:25.183Z,34.36
2022-08-06T16:31:53.920Z,34.11
2022-08-06T16:34:23.313Z,35.01
2022-08-06T16:36:54.401Z,33.68
2022-08-06T16:39:36.233Z,32.99
2022-08-06T16:42:05.642Z,32.01
2022-08-06T16:44:35.295Z,32.56
2022-08-06T16:47:04.995Z,33.50
2022-08-06T16:50:18.152Z,34.16
2022-08-06T16:52:42.921Z,34.49
2022-08-06T16:57:57.580Z,35.89
2022-08-06T17:00:59.414Z,35.44
2022-08-06T17:03:14.141Z,36.82
2022-08-06T17:05:46.219Z,37.92
2022-08-06T17:08:19.241Z,38.99
2022-08-06T17:10:45.873Z,39.31
2022-08-06T17:13:38.468Z,41.72
2022-08-06T17:16:06.589Z,40.12
2022-08-06T17:18:39.243Z,40.90
2022-08-06T17:21:08.200Z,42.01
2022-08-06T17:23:34.845Z,41.76
2022-08-06T17:26:04.967Z,43.28
2022-08-06T17:28:34.469Z,45.24
2022-08-06T17:31:00.885Z,44.55
2022-08-06T17:33:40.243Z,44.29
2022-08-06T17:36:29.855Z,44.62
2022-08-06T17:38:54.335Z,45.81
2022-08-06T17:41:20.752Z,45.25
2022-08-06T17:43:54.836Z,45.99
2022-08-06T17:46:25.696Z,46.54
2022-08-06T17:48:53.945Z,46.20
2022-08-06T17:51:21.948Z,46.62
2022-08-06T17:53:52.547Z,46.51
2022-08-06T17:56:30.523Z,48.50
2022-08-06T17:59:17.301Z,48.29
2022-08-06T18:01:46.694Z,48.35
2022-08-06T18:04:21.296Z,48.60
2022-08-06T18:06:49.591Z,49.82
2022-08-06T18:10:07.299Z,49.25
2022-08-06T18:12:04.223Z,50.29
2022-08-06T18:14:32.503Z,50.80
2022-08-06T18:16:59.844Z,51.53
2022-08-06T18:19:36.812Z,50.76
2022-08-06T18:22:21.313Z,50.52
2022-08-06T18:24:51.530Z,51.01
2022-08-06T18:27:54.621Z,51.22
2022-08-06T18:30:06.631Z,52.29
2022-08-06T18:32:37.208Z,52.12
2022-08-06T18:35:04.328Z,51.73
2022-08-06T18:38:00.364Z,52.68
2022-08-06T18:40:40.355Z,52.81
2022-08-06T18:43:08.845Z,52.49
2022-08-06T18:45:36.925Z,53.05
2022-08-06T18:48:05.238Z,54.15
2022-08-06T18:50:33.170Z,53.89
2022-08-06T18:53:00.813Z,54.42
2022-08-06T18:55:53.792Z,54.62
2022-08-06T18:58:15.303Z,55.29
2022-08-06T19:00:42.104Z,55.12
2022-08-06T19:03:18.207Z,54.62
2022-08-06T19:05:50.503Z,54.49
2022-08-06T19:08:17.544Z,54.82
2022-08-06T19:10:58.052Z,55.08
2022-08-06T19:14:17.253Z,54.93
2022-08-06T19:16:14.122Z,55.47
2022-08-06T19:18:45.931Z,54.93
2022-08-06T19:21:17.938Z,55.71
2022-08-06T19:24:03.380Z,56.11
2022-08-06T19:26:31.869Z,56.36
2022-08-06T19:29:01.844Z,56.60
2022-08-06T19:31:43.089Z,56.54
2022-08-06T19:34:14.858Z,56.80
2022-08-06T19:36:48.065Z,56.56
2022-08-06T19:39:53.218Z,56.74
2022-08-06T19:42:06.267Z,56.95
2022-08-06T19:45:04.566Z,57.23
2022-08-06T19:47:28.572Z,56.95
2022-08-06T19:49:55.005Z,56.98
2022-08-06T19:52:29.094Z,57.66
2022-08-06T19:54:58.089Z,58.38
2022-08-06T19:57:26.617Z,58.67
2022-08-06T20:00:51.855Z,58.54
2022-08-06T20:02:50.808Z,59.00
2022-08-06T20:06:17.837Z,59.63
2022-08-06T20:08:32.089Z,59.38
2022-08-06T20:10:56.669Z,60.50
2022-08-06T20:13:23.368Z,60.14
2022-08-06T20:15:49.800Z,60.34
2022-08-06T20:18:18.216Z,61.25
2022-08-06T20:20:47.909Z,61.59
2022-08-06T20:23:16.981Z,62.40
2022-08-06T20:26:09.227Z,61.94
2022-08-06T20:29:20.730Z,62.01
2022-08-06T20:31:19.253Z,62.01
2022-08-06T20:33:57.971Z,61.55
2022-08-06T20:36:32.051Z,61.88
2022-08-06T20:39:00.560Z,61.88
2022-08-06T20:42:02.352Z,62.00
2022-08-06T20:44:18.305Z,61.87
2022-08-06T20:47:45.511Z,61.89
2022-08-06T20:50:03.760Z,62.24
2022-08-06T20:52:20.420Z,62.41
2022-08-06T20:54:52.188Z,63.16
2022-08-06T20:57:26.763Z,62.90
2022-08-06T20:59:56.437Z,63.05
2022-08-06T21:02:26.090Z,63.03
2022-08-06T21:05:14.769Z,64.19
2022-08-06T21:07:57.344Z,62.73
2022-08-06T21:10:26.614Z,63.48
2022-08-06T21:13:01.604Z,63.15
2022-08-06T21:15:54.683Z,63.41
2022-08-06T21:18:21.166Z,63.77
2022-08-06T21:20:51.045Z,63.62
2022-08-06T21:23:21.377Z,63.53
2022-08-06T21:26:06.958Z,63.64
2022-08-06T21:28:33.594Z,64.04
2022-08-06T21:31:00.008Z,64.12
2022-08-06T21:33:27.430Z,63.86
2022-08-06T21:35:53.829Z,63.96
2022-08-06T21:38:24.077Z,63.88
2022-08-06T21:40:53.724Z,63.92
2022-08-06T21:43:22.185Z,64.19
2022-08-06T21:45:58.508Z,64.87
2022-08-06T21:48:31.675Z,64.71
2022-08-06T21:50:59.486Z,64.99
2022-08-06T21:53:49.248Z,64.49
2022-08-06T21:56:38.996Z,65.04
2022-08-06T21:59:00.251Z,65.11
2022-08-06T22:02:09.054Z,65.11
2022-08-06T22:04:37.692Z,65.38
2022-08-06T22:07:00.495Z,65.78
2022-08-06T22:09:38.336Z,65.79
2022-08-06T22:12:38.217Z,65.60
2022-08-06T22:14:58.610Z,65.74
2022-08-06T22:17:59.670Z,66.21
2022-08-06T22:20:22.059Z,66.64
2022-08-06T22:22:53.714Z,66.71
2022-08-06T22:25:23.064Z,66.36
2022-08-06T22:27:54.866Z,66.44
2022-08-06T22:30:36.771Z,66.55
2022-08-06T22:33:17.216Z,66.74
2022-08-06T22:35:58.201Z,67.27
2022-08-06T22:38:35.397Z,67.68
2022-08-06T22:41:04.398Z,67.05
2022-08-06T22:43:51.740Z,67.27
2022-08-06T22:46:17.469Z,67.30
2022-08-06T22:48:47.284Z,67.57
2022-08-06T22:51:18.705Z,67.59
2022-08-06T22:54:28.768Z,67.72
2022-08-06T22:56:36.392Z,67.74
2022-08-06T22:59:20.517Z,68.38
2022-08-06T23:02:06.894Z,69.02
2022-08-06T23:04:37.769Z,68.77
2022-08-06T23:07:09.155Z,69.71
2022-08-06T23:09:36.018Z,70.27
2022-08-06T23:12:04.064Z,70.33
2022-08-06T23:14:33.767Z,71.00
2022-08-06T23:17:01.027Z,71.05
2022-08-06T23:19:30.171Z,70.18
2022-08-06T23:22:02.396Z,70.13
2022-08-06T23:24:35.854Z,70.20
2022-08-06T23:27:04.662Z,70.47
2022-08-06T23:29:35.288Z,70.07
2022-08-06T23:32:22.246Z,70.75
2022-08-06T23:34:48.936Z,71.70
2022-08-06T23:37:16.430Z,70.85
2022-08-06T23:42:22.007Z,71.38
2022-08-06T23:44:52.703Z,71.32
2022-08-06T23:47:53.606Z,72.08
2022-08-06T23:50:06.612Z,70.54
2022-08-06T23:52:36.160Z,70.80
2022-08-06T23:55:11.569Z,71.27
2022-08-06T23:57:56.506Z,72.68
